sensor_id;sensor_type;location;lat;lon;timestamp;noise_LAeq;noise_LA_min;noise_LA_max;noise_LA01;noise_LA95
79200;Laerm;68628;48.714;9.472;2023-04-24T00:00:55;39.45;34.09;54.78;;
79200;Laerm;68628;48.714;9.472;2023-04-24T00:03:26;41.02;33.55;52.02;;
79200;Laerm;68628;48.714;9.472;2023-04-24T00:05:54;37.88;34.85;51.57;;
79200;Laerm;68628;48.714;9.472;2023-04-24T00:08:20;39.90;34.23;50.84;;
79200;Laerm;68628;48.714;9.472;2023-04-24T00:10:46;39.52;34.94;49.07;;
79200;Laerm;68628;48.714;9.472;2023-04-24T00:13:12;45.29;35.67;54.96;;
79200;Laerm;68628;48.714;9.472;2023-04-24T00:15:38;39.89;35.72;49.60;;
79200;Laerm;68628;48.714;9.472;2023-04-24T00:18:04;39.98;34.94;49.27;;
79200;Laerm;68628;48.714;9.472;2023-04-24T00:20:30;40.05;34.29;54.44;;
79200;Laerm;68628;48.714;9.472;2023-04-24T00:22:57;39.31;34.11;47.89;;
79200;Laerm;68628;48.714;9.472;2023-04-24T00:25:23;39.45;34.55;48.20;;
79200;Laerm;68628;48.714;9.472;2023-04-24T00:27:49;38.58;34.25;46.12;;
79200;Laerm;68628;48.714;9.472;2023-04-24T00:30:14;37.46;32.73;54.00;;
79200;Laerm;68628;48.714;9.472;2023-04-24T00:32:40;38.78;32.91;49.18;;
79200;Laerm;68628;48.714;9.472;2023-04-24T00:35:06;39.09;34.58;48.62;;
79200;Laerm;68628;48.714;9.472;2023-04-24T00:37:32;35.72;33.29;49.80;;
79200;Laerm;68628;48.714;9.472;2023-04-24T00:39:58;38.73;35.02;44.39;;
79200;Laerm;68628;48.714;9.472;2023-04-24T00:42:24;38.68;35.05;50.12;;
79200;Laerm;68628;48.714;9.472;2023-04-24T00:44:50;38.68;35.47;45.17;;
79200;Laerm;68628;48.714;9.472;2023-04-24T00:47:16;42.11;35.64;51.55;;
79200;Laerm;68628;48.714;9.472;2023-04-24T00:49:42;37.92;34.68;44.69;;
79200;Laerm;68628;48.714;9.472;2023-04-24T00:52:08;38.62;34.72;45.73;;
79200;Laerm;68628;48.714;9.472;2023-04-24T00:54:35;37.62;34.49;49.41;;
79200;Laerm;68628;48.714;9.472;2023-04-24T00:57:03;38.35;35.65;46.07;;
79200;Laerm;68628;48.714;9.472;2023-04-24T00:59:29;40.77;37.25;49.72;;
79200;Laerm;68628;48.714;9.472;2023-04-24T01:01:57;39.89;35.58;47.24;;
79200;Laerm;68628;48.714;9.472;2023-04-24T01:04:24;38.66;35.57;43.85;;
79200;Laerm;68628;48.714;9.472;2023-04-24T01:06:51;43.50;35.76;50.46;;
79200;Laerm;68628;48.714;9.472;2023-04-24T01:09:19;38.16;34.54;50.94;;
79200;Laerm;68628;48.714;9.472;2023-04-24T01:11:46;38.51;35.32;45.92;;
79200;Laerm;68628;48.714;9.472;2023-04-24T01:14:12;38.78;35.90;43.38;;
79200;Laerm;68628;48.714;9.472;2023-04-24T01:16:38;40.66;35.89;48.29;;
79200;Laerm;68628;48.714;9.472;2023-04-24T01:19:07;36.35;33.81;40.61;;
79200;Laerm;68628;48.714;9.472;2023-04-24T01:21:37;38.89;35.24;45.32;;
79200;Laerm;68628;48.714;9.472;2023-04-24T01:24:06;39.40;35.62;51.44;;
79200;Laerm;68628;48.714;9.472;2023-04-24T01:26:33;41.16;36.79;46.91;;
79200;Laerm;68628;48.714;9.472;2023-04-24T01:28:59;37.68;35.58;40.72;;
79200;Laerm;68628;48.714;9.472;2023-04-24T01:31:25;40.09;36.35;45.28;;
79200;Laerm;68628;48.714;9.472;2023-04-24T01:33:52;40.86;35.40;49.41;;
79200;Laerm;68628;48.714;9.472;2023-04-24T01:36:19;39.41;35.57;46.17;;
79200;Laerm;68628;48.714;9.472;2023-04-24T01:38:46;41.26;37.77;48.16;;
79200;Laerm;68628;48.714;9.472;2023-04-24T01:41:11;44.09;37.36;57.73;;
79200;Laerm;68628;48.714;9.472;2023-04-24T01:43:37;41.51;37.29;47.40;;
79200;Laerm;68628;48.714;9.472;2023-04-24T01:46:04;39.32;36.41;44.03;;
79200;Laerm;68628;48.714;9.472;2023-04-24T01:48:31;38.36;35.46;51.42;;
79200;Laerm;68628;48.714;9.472;2023-04-24T01:50:57;38.81;36.18;44.67;;
79200;Laerm;68628;48.714;9.472;2023-04-24T01:53:22;38.18;35.13;42.26;;
79200;Laerm;68628;48.714;9.472;2023-04-24T01:55:48;38.25;35.26;42.40;;
79200;Laerm;68628;48.714;9.472;2023-04-24T01:58:14;42.26;35.58;57.41;;
79200;Laerm;68628;48.714;9.472;2023-04-24T02:00:40;39.97;36.94;46.95;;
79200;Laerm;68628;48.714;9.472;2023-04-24T02:03:05;40.02;36.90;43.80;;
79200;Laerm;68628;48.714;9.472;2023-04-24T02:05:31;42.12;35.52;55.28;;
79200;Laerm;68628;48.714;9.472;2023-04-24T02:07:56;45.13;39.10;58.48;;
79200;Laerm;68628;48.714;9.472;2023-04-24T02:10:22;41.44;36.34;47.60;;
79200;Laerm;68628;48.714;9.472;2023-04-24T02:12:48;42.35;36.99;51.50;;
79200;Laerm;68628;48.714;9.472;2023-04-24T02:15:13;42.00;38.66;49.26;;
79200;Laerm;68628;48.714;9.472;2023-04-24T02:17:39;42.69;38.59;49.08;;
79200;Laerm;68628;48.714;9.472;2023-04-24T02:20:06;42.65;38.36;48.26;;
79200;Laerm;68628;48.714;9.472;2023-04-24T02:22:32;42.41;39.00;50.01;;
79200;Laerm;68628;48.714;9.472;2023-04-24T02:24:57;43.58;37.68;54.02;;
79200;Laerm;68628;48.714;9.472;2023-04-24T02:27:23;40.22;35.88;47.04;;
79200;Laerm;68628;48.714;9.472;2023-04-24T02:29:49;42.72;37.69;51.62;;
79200;Laerm;68628;48.714;9.472;2023-04-24T02:32:14;42.76;39.21;49.65;;
79200;Laerm;68628;48.714;9.472;2023-04-24T02:34:41;45.25;39.61;52.52;;
79200;Laerm;68628;48.714;9.472;2023-04-24T02:37:06;44.10;38.54;52.82;;
79200;Laerm;68628;48.714;9.472;2023-04-24T02:39:32;46.90;41.51;54.74;;
79200;Laerm;68628;48.714;9.472;2023-04-24T02:41:57;46.30;39.17;55.95;;
79200;Laerm;68628;48.714;9.472;2023-04-24T02:44:23;42.94;39.24;50.15;;
79200;Laerm;68628;48.714;9.472;2023-04-24T02:46:49;45.79;41.49;52.73;;
79200;Laerm;68628;48.714;9.472;2023-04-24T02:49:14;43.01;39.09;50.50;;
79200;Laerm;68628;48.714;9.472;2023-04-24T02:51:40;46.94;41.96;55.77;;
79200;Laerm;68628;48.714;9.472;2023-04-24T02:54:08;47.89;41.42;58.14;;
79200;Laerm;68628;48.714;9.472;2023-04-24T02:56:35;46.37;41.53;63.53;;
79200;Laerm;68628;48.714;9.472;2023-04-24T02:59:00;44.54;41.04;55.96;;
79200;Laerm;68628;48.714;9.472;2023-04-24T03:01:26;45.80;40.72;56.49;;
79200;Laerm;68628;48.714;9.472;2023-04-24T03:03:54;45.41;40.54;56.03;;
79200;Laerm;68628;48.714;9.472;2023-04-24T03:06:19;46.81;42.59;53.77;;
79200;Laerm;68628;48.714;9.472;2023-04-24T03:08:46;46.39;42.37;55.40;;
79200;Laerm;68628;48.714;9.472;2023-04-24T03:11:11;48.17;43.10;57.29;;
79200;Laerm;68628;48.714;9.472;2023-04-24T03:13:37;47.92;42.58;59.63;;
79200;Laerm;68628;48.714;9.472;2023-04-24T03:16:03;47.25;39.94;60.59;;
79200;Laerm;68628;48.714;9.472;2023-04-24T03:18:28;49.73;42.43;64.86;;
79200;Laerm;68628;48.714;9.472;2023-04-24T03:20:54;50.21;41.57;65.94;;
79200;Laerm;68628;48.714;9.472;2023-04-24T03:23:19;51.09;43.36;62.60;;
79200;Laerm;68628;48.714;9.472;2023-04-24T03:25:45;52.63;43.44;64.56;;
79200;Laerm;68628;48.714;9.472;2023-04-24T03:28:11;50.08;44.06;62.61;;
79200;Laerm;68628;48.714;9.472;2023-04-24T03:30:36;49.78;44.52;61.53;;
79200;Laerm;68628;48.714;9.472;2023-04-24T03:33:02;50.43;44.88;58.44;;
79200;Laerm;68628;48.714;9.472;2023-04-24T03:35:27;50.99;46.09;58.64;;
79200;Laerm;68628;48.714;9.472;2023-04-24T03:37:53;54.40;46.03;66.00;;
79200;Laerm;68628;48.714;9.472;2023-04-24T03:40:18;54.80;47.00;64.80;;
79200;Laerm;68628;48.714;9.472;2023-04-24T03:42:44;54.24;47.51;64.00;;
79200;Laerm;68628;48.714;9.472;2023-04-24T03:45:10;51.87;47.07;60.55;;
79200;Laerm;68628;48.714;9.472;2023-04-24T03:47:38;51.77;46.88;59.96;;
79200;Laerm;68628;48.714;9.472;2023-04-24T03:50:05;51.94;45.62;61.68;;
79200;Laerm;68628;48.714;9.472;2023-04-24T03:52:30;52.74;45.64;61.37;;
79200;Laerm;68628;48.714;9.472;2023-04-24T03:54:56;51.23;45.41;57.20;;
79200;Laerm;68628;48.714;9.472;2023-04-24T03:57:22;50.82;44.46;60.75;;
79200;Laerm;68628;48.714;9.472;2023-04-24T03:59:47;52.74;46.35;63.27;;
79200;Laerm;68628;48.714;9.472;2023-04-24T04:02:13;54.67;47.03;64.23;;
79200;Laerm;68628;48.714;9.472;2023-04-24T04:04:38;51.70;46.84;60.48;;
79200;Laerm;68628;48.714;9.472;2023-04-24T04:07:04;50.82;47.23;57.83;;
79200;Laerm;68628;48.714;9.472;2023-04-24T04:09:30;51.38;46.79;61.09;;
79200;Laerm;68628;48.714;9.472;2023-04-24T04:11:56;50.44;45.88;61.55;;
79200;Laerm;68628;48.714;9.472;2023-04-24T04:14:22;49.30;44.42;58.54;;
79200;Laerm;68628;48.714;9.472;2023-04-24T04:16:48;52.87;46.94;66.48;;
79200;Laerm;68628;48.714;9.472;2023-04-24T04:19:14;54.73;47.39;68.36;;
79200;Laerm;68628;48.714;9.472;2023-04-24T04:21:39;54.23;47.98;63.73;;
79200;Laerm;68628;48.714;9.472;2023-04-24T04:24:05;56.11;48.42;65.95;;
79200;Laerm;68628;48.714;9.472;2023-04-24T04:26:32;55.62;47.09;68.46;;
79200;Laerm;68628;48.714;9.472;2023-04-24T04:28:59;53.05;48.53;59.08;;
79200;Laerm;68628;48.714;9.472;2023-04-24T04:31:26;53.72;47.77;65.92;;
79200;Laerm;68628;48.714;9.472;2023-04-24T04:33:51;53.50;48.99;66.85;;
79200;Laerm;68628;48.714;9.472;2023-04-24T04:36:17;52.11;47.82;58.95;;
79200;Laerm;68628;48.714;9.472;2023-04-24T04:38:43;52.96;48.88;60.63;;
79200;Laerm;68628;48.714;9.472;2023-04-24T04:41:10;52.65;49.13;61.90;;
79200;Laerm;68628;48.714;9.472;2023-04-24T04:43:36;52.73;49.14;58.45;;
79200;Laerm;68628;48.714;9.472;2023-04-24T04:46:01;52.27;49.17;59.48;;
79200;Laerm;68628;48.714;9.472;2023-04-24T04:48:28;53.24;48.75;60.08;;
79200;Laerm;68628;48.714;9.472;2023-04-24T04:50:57;52.28;47.82;58.31;;
79200;Laerm;68628;48.714;9.472;2023-04-24T04:53:23;51.71;46.77;60.13;;
79200;Laerm;68628;48.714;9.472;2023-04-24T04:55:49;51.78;46.89;59.89;;
79200;Laerm;68628;48.714;9.472;2023-04-24T04:58:15;52.72;47.23;63.97;;
79200;Laerm;68628;48.714;9.472;2023-04-24T05:00:41;53.99;49.18;70.78;;
79200;Laerm;68628;48.714;9.472;2023-04-24T05:03:06;55.86;50.71;65.88;;
79200;Laerm;68628;48.714;9.472;2023-04-24T05:05:32;54.47;47.84;65.17;;
79200;Laerm;68628;48.714;9.472;2023-04-24T05:07:58;53.94;48.32;62.05;;
79200;Laerm;68628;48.714;9.472;2023-04-24T05:10:23;54.34;48.52;63.42;;
79200;Laerm;68628;48.714;9.472;2023-04-24T05:12:49;54.43;47.71;65.41;;
79200;Laerm;68628;48.714;9.472;2023-04-24T05:15:15;54.48;47.91;62.00;;
79200;Laerm;68628;48.714;9.472;2023-04-24T05:17:40;53.73;47.07;61.86;;
79200;Laerm;68628;48.714;9.472;2023-04-24T05:20:07;53.01;47.15;60.17;;
79200;Laerm;68628;48.714;9.472;2023-04-24T05:22:33;53.02;48.16;63.64;;
79200;Laerm;68628;48.714;9.472;2023-04-24T05:24:59;55.33;46.48;64.84;;
79200;Laerm;68628;48.714;9.472;2023-04-24T05:27:24;51.57;46.21;60.68;;
79200;Laerm;68628;48.714;9.472;2023-04-24T05:29:50;52.47;46.85;61.12;;
79200;Laerm;68628;48.714;9.472;2023-04-24T05:32:16;51.66;45.24;63.58;;
79200;Laerm;68628;48.714;9.472;2023-04-24T05:34:42;52.56;45.76;62.26;;
79200;Laerm;68628;48.714;9.472;2023-04-24T05:37:08;54.23;47.40;66.42;;
79200;Laerm;68628;48.714;9.472;2023-04-24T05:39:36;53.99;47.34;62.59;;
79200;Laerm;68628;48.714;9.472;2023-04-24T05:42:02;55.62;48.11;66.77;;
79200;Laerm;68628;48.714;9.472;2023-04-24T05:44:30;55.89;50.06;67.34;;
79200;Laerm;68628;48.714;9.472;2023-04-24T05:46:56;61.85;52.41;68.21;;
79200;Laerm;68628;48.714;9.472;2023-04-24T05:49:22;56.91;50.61;62.16;;
79200;Laerm;68628;48.714;9.472;2023-04-24T05:51:48;55.80;49.08;62.98;;
79200;Laerm;68628;48.714;9.472;2023-04-24T05:54:14;56.40;50.75;66.68;;
79200;Laerm;68628;48.714;9.472;2023-04-24T05:56:40;54.42;48.85;64.09;;
79200;Laerm;68628;48.714;9.472;2023-04-24T05:59:06;57.72;51.90;64.60;;
79200;Laerm;68628;48.714;9.472;2023-04-24T06:01:33;59.22;47.38;69.84;;
79200;Laerm;68628;48.714;9.472;2023-04-24T06:03:59;54.96;46.70;61.96;;
79200;Laerm;68628;48.714;9.472;2023-04-24T06:06:24;54.83;49.11;61.47;;
79200;Laerm;68628;48.714;9.472;2023-04-24T06:08:51;56.20;48.72;63.90;;
79200;Laerm;68628;48.714;9.472;2023-04-24T06:11:17;58.61;48.59;63.29;;
79200;Laerm;68628;48.714;9.472;2023-04-24T06:13:42;56.62;47.05;64.64;;
79200;Laerm;68628;48.714;9.472;2023-04-24T06:16:08;58.08;48.72;65.75;;
79200;Laerm;68628;48.714;9.472;2023-04-24T06:18:34;58.57;49.03;63.86;;
79200;Laerm;68628;48.714;9.472;2023-04-24T06:21:00;54.08;46.25;61.47;;
79200;Laerm;68628;48.714;9.472;2023-04-24T06:23:25;50.56;45.91;58.12;;
79200;Laerm;68628;48.714;9.472;2023-04-24T06:25:51;57.94;45.65;66.58;;
79200;Laerm;68628;48.714;9.472;2023-04-24T06:28:17;61.89;48.42;68.92;;
79200;Laerm;68628;48.714;9.472;2023-04-24T06:30:42;56.94;46.29;63.38;;
79200;Laerm;68628;48.714;9.472;2023-04-24T06:33:08;56.76;45.16;62.59;;
79200;Laerm;68628;48.714;9.472;2023-04-24T06:35:34;56.70;47.97;59.60;;
79200;Laerm;68628;48.714;9.472;2023-04-24T06:38:00;57.65;49.77;60.72;;
79200;Laerm;68628;48.714;9.472;2023-04-24T06:40:26;56.49;48.07;60.12;;
79200;Laerm;68628;48.714;9.472;2023-04-24T06:42:51;52.07;44.28;61.27;;
79200;Laerm;68628;48.714;9.472;2023-04-24T06:45:18;48.75;43.85;57.32;;
79200;Laerm;68628;48.714;9.472;2023-04-24T06:47:43;49.98;45.79;59.19;;
79200;Laerm;68628;48.714;9.472;2023-04-24T06:50:10;49.41;45.79;56.81;;
79200;Laerm;68628;48.714;9.472;2023-04-24T06:52:36;50.74;45.92;59.35;;
79200;Laerm;68628;48.714;9.472;2023-04-24T06:55:04;49.63;44.27;58.16;;
79200;Laerm;68628;48.714;9.472;2023-04-24T06:57:31;52.11;44.41;65.06;;
79200;Laerm;68628;48.714;9.472;2023-04-24T06:59:57;50.48;45.26;64.38;;
79200;Laerm;68628;48.714;9.472;2023-04-24T07:02:22;50.52;44.40;58.46;;
79200;Laerm;68628;48.714;9.472;2023-04-24T07:04:48;48.32;44.06;57.04;;
79200;Laerm;68628;48.714;9.472;2023-04-24T07:07:14;49.01;44.84;55.39;;
79200;Laerm;68628;48.714;9.472;2023-04-24T07:09:41;49.41;43.52;57.66;;
79200;Laerm;68628;48.714;9.472;2023-04-24T07:12:11;49.78;44.10;60.23;;
79200;Laerm;68628;48.714;9.472;2023-04-24T07:14:38;48.56;42.68;57.90;;
79200;Laerm;68628;48.714;9.472;2023-04-24T07:17:04;48.52;43.55;59.65;;
79200;Laerm;68628;48.714;9.472;2023-04-24T07:19:33;50.55;44.19;61.26;;
79200;Laerm;68628;48.714;9.472;2023-04-24T07:22:01;55.47;44.43;68.90;;
79200;Laerm;68628;48.714;9.472;2023-04-24T07:24:26;48.47;43.65;58.71;;
79200;Laerm;68628;48.714;9.472;2023-04-24T07:26:54;49.51;43.13;63.76;;
79200;Laerm;68628;48.714;9.472;2023-04-24T07:29:19;47.80;43.60;56.91;;
79200;Laerm;68628;48.714;9.472;2023-04-24T07:31:46;48.57;43.81;57.07;;
79200;Laerm;68628;48.714;9.472;2023-04-24T07:34:12;53.10;43.34;66.12;;
79200;Laerm;68628;48.714;9.472;2023-04-24T07:36:38;46.64;43.50;53.40;;
79200;Laerm;68628;48.714;9.472;2023-04-24T07:39:05;47.99;43.45;56.71;;
79200;Laerm;68628;48.714;9.472;2023-04-24T07:41:33;48.17;44.19;59.09;;
79200;Laerm;68628;48.714;9.472;2023-04-24T07:43:59;49.90;44.09;64.23;;
79200;Laerm;68628;48.714;9.472;2023-04-24T07:46:25;53.22;45.48;66.03;;
79200;Laerm;68628;48.714;9.472;2023-04-24T07:48:53;52.40;46.06;60.61;;
79200;Laerm;68628;48.714;9.472;2023-04-24T07:51:19;55.04;48.50;67.94;;
79200;Laerm;68628;48.714;9.472;2023-04-24T07:53:45;54.69;47.15;72.53;;
79200;Laerm;68628;48.714;9.472;2023-04-24T07:56:13;53.94;47.70;62.46;;
79200;Laerm;68628;48.714;9.472;2023-04-24T07:58:38;53.27;47.18;67.73;;
79200;Laerm;68628;48.714;9.472;2023-04-24T08:01:04;53.93;47.84;64.50;;
79200;Laerm;68628;48.714;9.472;2023-04-24T08:03:30;54.61;46.09;66.51;;
79200;Laerm;68628;48.714;9.472;2023-04-24T08:05:56;51.63;46.81;67.00;;
79200;Laerm;68628;48.714;9.472;2023-04-24T08:08:23;52.66;47.76;60.12;;
79200;Laerm;68628;48.714;9.472;2023-04-24T08:10:49;52.98;46.27;64.74;;
79200;Laerm;68628;48.714;9.472;2023-04-24T08:13:15;51.47;46.00;63.20;;
79200;Laerm;68628;48.714;9.472;2023-04-24T08:15:41;53.54;46.20;71.33;;
79200;Laerm;68628;48.714;9.472;2023-04-24T08:18:07;60.88;46.55;80.37;;
79200;Laerm;68628;48.714;9.472;2023-04-24T08:20:32;60.65;46.02;79.22;;
79200;Laerm;68628;48.714;9.472;2023-04-24T08:22:58;51.24;44.84;64.04;;
79200;Laerm;68628;48.714;9.472;2023-04-24T08:25:24;60.04;45.36;76.38;;
79200;Laerm;68628;48.714;9.472;2023-04-24T08:27:50;64.28;45.14;82.86;;
79200;Laerm;68628;48.714;9.472;2023-04-24T08:30:17;58.18;45.69;80.85;;
79200;Laerm;68628;48.714;9.472;2023-04-24T08:32:43;50.95;46.54;60.09;;
79200;Laerm;68628;48.714;9.472;2023-04-24T08:35:09;68.05;44.54;89.84;;
79200;Laerm;68628;48.714;9.472;2023-04-24T08:37:36;53.74;45.99;73.96;;
79200;Laerm;68628;48.714;9.472;2023-04-24T08:40:13;57.51;47.34;74.76;;
79200;Laerm;68628;48.714;9.472;2023-04-24T08:42:43;57.56;45.04;75.51;;
79200;Laerm;68628;48.714;9.472;2023-04-24T08:45:12;50.87;43.18;66.19;;
79200;Laerm;68628;48.714;9.472;2023-04-24T08:47:40;51.17;44.87;70.05;;
79200;Laerm;68628;48.714;9.472;2023-04-24T08:50:07;54.38;44.77;74.56;;
79200;Laerm;68628;48.714;9.472;2023-04-24T08:52:35;66.08;44.36;87.04;;
79200;Laerm;68628;48.714;9.472;2023-04-24T08:55:01;50.34;45.85;63.48;;
79200;Laerm;68628;48.714;9.472;2023-04-24T08:57:28;54.80;45.36;75.79;;
79200;Laerm;68628;48.714;9.472;2023-04-24T08:59:57;57.94;46.10;79.49;;
79200;Laerm;68628;48.714;9.472;2023-04-24T09:02:24;51.15;45.98;69.40;;
79200;Laerm;68628;48.714;9.472;2023-04-24T09:04:52;56.20;45.22;72.20;;
79200;Laerm;68628;48.714;9.472;2023-04-24T09:07:22;50.63;44.72;59.73;;
79200;Laerm;68628;48.714;9.472;2023-04-24T09:09:51;54.02;44.68;71.85;;
79200;Laerm;68628;48.714;9.472;2023-04-24T09:12:17;67.30;47.52;85.36;;
79200;Laerm;68628;48.714;9.472;2023-04-24T09:14:45;67.86;45.44;90.19;;
79200;Laerm;68628;48.714;9.472;2023-04-24T09:17:11;63.13;46.46;80.40;;
79200;Laerm;68628;48.714;9.472;2023-04-24T09:19:37;62.84;44.85;83.60;;
79200;Laerm;68628;48.714;9.472;2023-04-24T09:22:07;56.34;45.85;78.88;;
79200;Laerm;68628;48.714;9.472;2023-04-24T09:24:34;53.41;45.98;71.22;;
79200;Laerm;68628;48.714;9.472;2023-04-24T09:27:00;53.45;45.49;68.62;;
79200;Laerm;68628;48.714;9.472;2023-04-24T09:29:27;51.63;45.71;70.10;;
79200;Laerm;68628;48.714;9.472;2023-04-24T09:31:53;54.06;44.96;70.38;;
79200;Laerm;68628;48.714;9.472;2023-04-24T09:34:26;50.35;43.98;67.27;;
79200;Laerm;68628;48.714;9.472;2023-04-24T09:36:53;64.39;44.48;83.78;;
79200;Laerm;68628;48.714;9.472;2023-04-24T09:39:19;53.79;45.21;71.97;;
79200;Laerm;68628;48.714;9.472;2023-04-24T09:41:55;53.71;45.97;72.22;;
79200;Laerm;68628;48.714;9.472;2023-04-24T09:44:27;53.59;42.58;71.01;;
79200;Laerm;68628;48.714;9.472;2023-04-24T09:47:00;50.19;43.78;65.35;;
79200;Laerm;68628;48.714;9.472;2023-04-24T09:49:28;55.37;46.56;71.48;;
79200;Laerm;68628;48.714;9.472;2023-04-24T09:52:04;68.38;45.78;93.04;;
79200;Laerm;68628;48.714;9.472;2023-04-24T09:54:30;67.32;55.87;79.60;;
79200;Laerm;68628;48.714;9.472;2023-04-24T09:56:56;69.73;60.56;77.34;;
79200;Laerm;68628;48.714;9.472;2023-04-24T09:59:23;72.14;69.63;77.33;;
79200;Laerm;68628;48.714;9.472;2023-04-24T10:01:49;70.31;68.75;74.42;;
79200;Laerm;68628;48.714;9.472;2023-04-24T10:04:27;71.01;59.14;83.35;;
79200;Laerm;68628;48.714;9.472;2023-04-24T10:06:56;68.15;61.65;77.27;;
79200;Laerm;68628;48.714;9.472;2023-04-24T10:09:25;72.39;60.64;80.26;;
79200;Laerm;68628;48.714;9.472;2023-04-24T10:11:53;69.43;68.09;72.23;;
79200;Laerm;68628;48.714;9.472;2023-04-24T10:14:23;70.27;68.42;83.28;;
79200;Laerm;68628;48.714;9.472;2023-04-24T10:16:54;66.19;53.02;79.89;;
79200;Laerm;68628;48.714;9.472;2023-04-24T10:19:26;56.39;47.76;65.13;;
79200;Laerm;68628;48.714;9.472;2023-04-24T10:21:52;63.14;56.52;79.96;;
79200;Laerm;68628;48.714;9.472;2023-04-24T10:24:19;68.46;63.96;74.35;;
79200;Laerm;68628;48.714;9.472;2023-04-24T10:26:48;75.84;59.42;86.51;;
79200;Laerm;68628;48.714;9.472;2023-04-24T10:29:18;79.95;57.71;86.99;;
79200;Laerm;68628;48.714;9.472;2023-04-24T10:31:44;61.88;56.32;76.59;;
79200;Laerm;68628;48.714;9.472;2023-04-24T10:34:16;68.79;51.49;89.73;;
79200;Laerm;68628;48.714;9.472;2023-04-24T10:36:48;61.83;52.54;75.86;;
79200;Laerm;68628;48.714;9.472;2023-04-24T10:39:17;55.74;44.36;70.58;;
79200;Laerm;68628;48.714;9.472;2023-04-24T10:41:44;53.21;45.22;67.36;;
79200;Laerm;68628;48.714;9.472;2023-04-24T10:44:15;57.85;47.38;78.65;;
79200;Laerm;68628;48.714;9.472;2023-04-24T10:46:46;57.34;46.58;72.26;;
79200;Laerm;68628;48.714;9.472;2023-04-24T10:49:14;58.83;45.32;80.54;;
79200;Laerm;68628;48.714;9.472;2023-04-24T10:51:47;59.48;46.94;80.21;;
79200;Laerm;68628;48.714;9.472;2023-04-24T10:54:24;51.67;46.55;64.69;;
79200;Laerm;68628;48.714;9.472;2023-04-24T10:56:51;52.23;47.48;63.13;;
79200;Laerm;68628;48.714;9.472;2023-04-24T10:59:26;66.66;46.04;86.78;;
79200;Laerm;68628;48.714;9.472;2023-04-24T11:01:55;56.53;46.55;79.35;;
79200;Laerm;68628;48.714;9.472;2023-04-24T11:04:33;68.97;49.00;91.85;;
79200;Laerm;68628;48.714;9.472;2023-04-24T11:07:01;60.15;47.09;82.11;;
79200;Laerm;68628;48.714;9.472;2023-04-24T11:09:30;52.13;46.32;65.43;;
79200;Laerm;68628;48.714;9.472;2023-04-24T11:12:07;54.36;45.83;69.32;;
79200;Laerm;68628;48.714;9.472;2023-04-24T11:17:32;70.60;47.64;87.61;;
79200;Laerm;68628;48.714;9.472;2023-04-24T11:20:08;60.17;44.86;80.42;;
79200;Laerm;68628;48.714;9.472;2023-04-24T11:22:39;59.27;57.05;67.09;;
79200;Laerm;68628;48.714;9.472;2023-04-24T11:25:09;61.71;58.67;74.44;;
79200;Laerm;68628;48.714;9.472;2023-04-24T11:27:44;66.13;59.87;81.06;;
79200;Laerm;68628;48.714;9.472;2023-04-24T11:30:12;65.13;59.62;88.51;;
79200;Laerm;68628;48.714;9.472;2023-04-24T11:32:43;62.58;59.87;79.66;;
79200;Laerm;68628;48.714;9.472;2023-04-24T11:35:22;70.05;59.34;89.35;;
79200;Laerm;68628;48.714;9.472;2023-04-24T11:37:52;63.60;59.37;84.66;;
79200;Laerm;68628;48.714;9.472;2023-04-24T11:40:21;64.43;59.17;81.87;;
79200;Laerm;68628;48.714;9.472;2023-04-24T11:42:53;64.18;57.95;80.75;;
79200;Laerm;68628;48.714;9.472;2023-04-24T11:45:29;59.16;56.79;70.61;;
79200;Laerm;68628;48.714;9.472;2023-04-24T11:47:56;53.35;46.55;65.43;;
79200;Laerm;68628;48.714;9.472;2023-04-24T11:50:24;58.24;44.87;74.46;;
79200;Laerm;68628;48.714;9.472;2023-04-24T11:52:52;51.93;45.18;68.24;;
79200;Laerm;68628;48.714;9.472;2023-04-24T11:57:46;52.89;44.00;70.01;;
79200;Laerm;68628;48.714;9.472;2023-04-24T12:00:17;57.00;43.94;78.36;;
79200;Laerm;68628;48.714;9.472;2023-04-24T12:02:44;58.03;42.76;77.09;;
79200;Laerm;68628;48.714;9.472;2023-04-24T12:05:23;65.17;45.22;86.94;;
79200;Laerm;68628;48.714;9.472;2023-04-24T12:07:49;66.97;45.86;87.25;;
79200;Laerm;68628;48.714;9.472;2023-04-24T12:10:21;60.45;46.06;81.48;;
79200;Laerm;68628;48.714;9.472;2023-04-24T12:12:47;60.64;46.79;82.66;;
79200;Laerm;68628;48.714;9.472;2023-04-24T12:15:16;58.16;45.78;77.90;;
79200;Laerm;68628;48.714;9.472;2023-04-24T12:17:42;50.48;45.01;56.64;;
79200;Laerm;68628;48.714;9.472;2023-04-24T12:20:09;50.29;45.90;57.11;;
79200;Laerm;68628;48.714;9.472;2023-04-24T12:22:50;52.16;45.03;66.76;;
79200;Laerm;68628;48.714;9.472;2023-04-24T12:25:21;48.93;43.57;62.62;;
79200;Laerm;68628;48.714;9.472;2023-04-24T12:27:54;62.69;45.23;86.05;;
79200;Laerm;68628;48.714;9.472;2023-04-24T12:30:27;54.99;44.59;75.67;;
79200;Laerm;68628;48.714;9.472;2023-04-24T12:32:54;50.90;44.53;63.26;;
79200;Laerm;68628;48.714;9.472;2023-04-24T12:35:24;57.72;45.21;75.50;;
79200;Laerm;68628;48.714;9.472;2023-04-24T12:37:50;53.37;45.11;75.90;;
79200;Laerm;68628;48.714;9.472;2023-04-24T12:40:18;67.31;46.13;88.27;;
79200;Laerm;68628;48.714;9.472;2023-04-24T12:42:48;55.44;46.15;75.29;;
79200;Laerm;68628;48.714;9.472;2023-04-24T12:45:16;57.35;46.19;76.15;;
79200;Laerm;68628;48.714;9.472;2023-04-24T12:47:44;71.96;46.26;91.53;;
79200;Laerm;68628;48.714;9.472;2023-04-24T12:50:13;52.04;45.23;64.85;;
79200;Laerm;68628;48.714;9.472;2023-04-24T12:52:41;55.52;45.42;72.97;;
79200;Laerm;68628;48.714;9.472;2023-04-24T12:55:07;68.25;45.87;85.92;;
79200;Laerm;68628;48.714;9.472;2023-04-24T12:57:37;59.29;44.87;78.59;;
79200;Laerm;68628;48.714;9.472;2023-04-24T13:00:07;51.77;46.04;63.74;;
79200;Laerm;68628;48.714;9.472;2023-04-24T13:02:33;50.43;44.74;65.33;;
79200;Laerm;68628;48.714;9.472;2023-04-24T13:05:00;53.08;44.24;72.54;;
79200;Laerm;68628;48.714;9.472;2023-04-24T13:07:27;54.29;46.04;78.58;;
79200;Laerm;68628;48.714;9.472;2023-04-24T13:09:55;52.95;45.94;67.77;;
79200;Laerm;68628;48.714;9.472;2023-04-24T13:12:21;54.34;46.19;70.26;;
79200;Laerm;68628;48.714;9.472;2023-04-24T13:14:49;62.67;45.31;79.26;;
79200;Laerm;68628;48.714;9.472;2023-04-24T13:17:15;58.83;45.80;74.82;;
79200;Laerm;68628;48.714;9.472;2023-04-24T13:19:43;50.28;44.86;62.13;;
79200;Laerm;68628;48.714;9.472;2023-04-24T13:22:11;57.88;45.92;76.82;;
79200;Laerm;68628;48.714;9.472;2023-04-24T13:24:38;59.96;45.91;76.65;;
79200;Laerm;68628;48.714;9.472;2023-04-24T13:27:07;65.08;46.50;83.75;;
79200;Laerm;68628;48.714;9.472;2023-04-24T13:29:32;54.77;44.78;76.40;;
79200;Laerm;68628;48.714;9.472;2023-04-24T13:31:59;50.02;45.09;57.65;;
79200;Laerm;68628;48.714;9.472;2023-04-24T13:34:26;51.90;45.17;68.08;;
79200;Laerm;68628;48.714;9.472;2023-04-24T13:36:57;57.47;45.93;78.19;;
79200;Laerm;68628;48.714;9.472;2023-04-24T13:39:24;56.76;45.61;78.79;;
79200;Laerm;68628;48.714;9.472;2023-04-24T13:41:51;56.01;45.76;78.24;;
79200;Laerm;68628;48.714;9.472;2023-04-24T13:44:18;49.20;46.07;54.65;;
79200;Laerm;68628;48.714;9.472;2023-04-24T13:46:48;50.14;46.24;58.87;;
79200;Laerm;68628;48.714;9.472;2023-04-24T13:49:15;51.08;44.23;68.75;;